Time;durP1;ratioP1;P1;durP2;ratioP2;P2;SDS_P1;SDS_P2;PMS_P1;PMS_P2;Temp;Humidity;BMP_temperature;BMP_pressure;BME280_temperature;BME280_humidity;BME280_pressure;Samples;Min_cycle;Max_cycle;Signal;HPM_P1;HPM_P2
2021/07/23 00:02:14;;;;;;;0.47;0.47;;;;;;;21.55;49.02;100749.06;6156213;23;20571;-71
2021/07/23 00:04:42;;;;;;;0.28;0.28;;;;;;;21.53;48.75;100758.91;6162841;23;20080;-71
2021/07/23 00:07:08;;;;;;;0.40;0.40;;;;;;;21.61;48.73;100770.00;6184600;23;20006;-71
2021/07/23 00:09:33;;;;;;;0.70;0.40;;;;;;;21.57;49.31;100765.44;6182955;23;20076;-72
2021/07/23 00:11:58;;;;;;;0.70;0.60;;;;;;;21.55;49.06;100770.50;6185245;23;20009;-73
2021/07/23 00:14:25;;;;;;;0.35;0.35;;;;;;;21.51;48.87;100777.88;6133720;23;20005;-71
2021/07/23 00:16:51;;;;;;;0.43;0.43;;;;;;;21.45;49.21;100764.13;6190238;23;20009;-71
2021/07/23 00:19:16;;;;;;;0.38;0.38;;;;;;;21.42;49.29;100772.28;6130527;23;20005;-72
2021/07/23 00:21:42;;;;;;;0.40;0.40;;;;;;;21.39;49.16;100765.47;6139440;23;20009;-71
2021/07/23 00:24:07;;;;;;;0.30;0.30;;;;;;;21.38;49.47;100768.56;6182655;23;20399;-73
2021/07/23 00:26:33;;;;;;;0.50;0.50;;;;;;;21.36;49.60;100770.84;6162040;23;20039;-73
2021/07/23 00:28:58;;;;;;;0.40;0.40;;;;;;;21.29;49.16;100768.59;6139063;23;20351;-74
2021/07/23 00:31:23;;;;;;;0.77;0.52;;;;;;;21.30;49.63;100772.19;6164257;23;20009;-73
2021/07/23 00:33:49;;;;;;;0.20;0.20;;;;;;;21.26;49.29;100760.88;6165166;23;20004;-73
2021/07/23 00:36:14;;;;;;;1.40;0.40;;;;;;;21.27;49.44;100765.31;6159474;23;20009;-75
2021/07/23 00:38:40;;;;;;;0.43;0.43;;;;;;;21.24;49.14;100763.19;6190803;23;20614;-76
2021/07/23 00:41:08;;;;;;;0.45;0.45;;;;;;;21.21;49.53;100763.84;6186803;23;20012;-72
2021/07/23 00:43:33;;;;;;;0.70;0.70;;;;;;;21.18;49.81;100758.94;6163633;23;20375;-71
2021/07/23 00:45:58;;;;;;;0.60;0.60;;;;;;;21.12;49.98;100761.09;6163823;23;20013;-74
2021/07/23 00:48:25;;;;;;;0.40;0.40;;;;;;;21.08;49.72;100760.94;6190970;23;20009;-71
2021/07/23 00:50:51;;;;;;;1.00;1.00;;;;;;;21.03;50.52;100755.53;6186844;23;20009;-71
2021/07/23 00:53:16;;;;;;;0.60;0.60;;;;;;;21.02;50.67;100753.09;6186140;23;20070;-68
2021/07/23 00:55:42;;;;;;;0.77;0.77;;;;;;;20.99;50.52;100746.22;6191014;23;20009;-69
2021/07/23 00:58:09;;;;;;;0.70;0.60;;;;;;;20.97;50.47;100751.28;6199844;23;20020;-68
2021/07/23 01:00:36;;;;;;;0.40;0.40;;;;;;;20.95;50.00;100753.56;6216358;23;20000;-71
2021/07/23 01:03:03;;;;;;;0.55;0.50;;;;;;;20.91;50.55;100744.28;6207930;23;20047;-70
2021/07/23 01:05:29;;;;;;;0.40;0.40;;;;;;;20.91;50.42;100744.28;6212051;23;20083;-69
2021/07/23 01:07:54;;;;;;;0.40;0.40;;;;;;;20.90;50.53;100737.88;6218154;23;20331;-69
2021/07/23 01:10:20;;;;;;;0.43;0.43;;;;;;;20.86;50.96;100730.53;6215339;23;20026;-69
2021/07/23 01:12:47;;;;;;;0.47;0.47;;;;;;;20.86;50.47;100730.53;6185398;23;20001;-68
2021/07/23 01:15:13;;;;;;;0.40;0.40;;;;;;;20.80;50.50;100726.28;6220440;23;20490;-69
2021/07/23 01:17:40;;;;;;;0.40;0.40;;;;;;;20.80;51.12;100717.97;6248904;23;20038;-69
2021/07/23 01:20:17;;;;;;;0.70;0.70;;;;;;;20.80;50.66;100732.66;6241595;23;20008;-69
2021/07/23 01:22:43;;;;;;;0.57;0.55;;;;;;;20.75;50.83;100725.31;6247231;23;20004;-69
2021/07/23 01:25:09;;;;;;;0.40;0.40;;;;;;;20.71;50.87;100717.97;6249525;23;20019;-70
2021/07/23 01:27:41;;;;;;;2.65;0.50;;;;;;;20.69;51.19;100721.06;6246809;23;20007;-70
2021/07/23 01:30:09;;;;;;;0.45;0.45;;;;;;;20.69;51.48;100721.06;6247914;23;20000;-69
2021/07/23 01:32:35;;;;;;;3.28;0.50;;;;;;;20.67;50.99;100717.78;6247306;23;20319;-69
2021/07/23 01:35:01;;;;;;;0.30;0.30;;;;;;;20.67;51.33;100717.78;6248023;23;20325;-69
2021/07/23 01:37:27;;;;;;;0.40;0.40;;;;;;;20.65;51.14;100722.03;6246898;23;20012;-68
2021/07/23 01:39:55;;;;;;;0.47;0.43;;;;;;;20.62;51.20;100717.94;6250332;23;20008;-68
2021/07/23 01:42:21;;;;;;;0.35;0.35;;;;;;;20.61;51.04;100719.06;6249418;23;20008;-68
2021/07/23 01:44:46;;;;;;;0.40;0.40;;;;;;;20.59;51.37;100721.38;6223232;23;20030;-71
2021/07/23 01:47:12;;;;;;;0.30;0.30;;;;;;;20.55;51.17;100714.84;6190174;23;20012;-71
2021/07/23 01:49:37;;;;;;;0.20;0.20;;;;;;;20.55;51.82;100723.16;6223440;23;20071;-69
2021/07/23 01:52:03;;;;;;;0.40;0.40;;;;;;;20.54;51.23;100729.84;6244373;23;20012;-70
2021/07/23 01:54:29;;;;;;;0.30;0.30;;;;;;;20.51;51.25;100731.31;6248587;23;20008;-71
2021/07/23 01:56:55;;;;;;;0.30;0.30;;;;;;;20.51;51.67;100730.50;6219868;23;20091;-70
2021/07/23 01:59:20;;;;;;;0.55;0.40;;;;;;;20.50;51.49;100728.88;6247557;23;20020;-69
2021/07/23 02:01:46;;;;;;;0.40;0.40;;;;;;;20.45;51.84;100726.25;6247124;23;20062;-70
2021/07/23 02:04:11;;;;;;;0.40;0.40;;;;;;;20.44;51.86;100730.97;6221212;23;20016;-69
2021/07/23 02:06:37;;;;;;;0.28;0.28;;;;;;;20.43;51.90;100722.97;6244831;23;20083;-69
2021/07/23 02:09:02;;;;;;;0.43;0.43;;;;;;;20.39;51.83;100728.38;6245260;23;20012;-70
2021/07/23 02:11:30;;;;;;;0.40;0.40;;;;;;;20.36;51.79;100724.28;6248998;23;20012;-69
2021/07/23 02:13:56;;;;;;;0.40;0.40;;;;;;;20.33;52.58;100722.16;6221427;23;20020;-70
2021/07/23 02:16:21;;;;;;;0.38;0.38;;;;;;;20.33;51.83;100719.38;6244780;23;20338;-71
2021/07/23 02:18:48;;;;;;;0.40;0.40;;;;;;;20.33;52.30;100718.56;6246882;23;20012;-69
2021/07/23 02:21:13;;;;;;;0.40;0.30;;;;;;;20.33;52.48;100724.13;6247450;23;20007;-69
2021/07/23 02:23:39;;;;;;;0.35;0.30;;;;;;;20.32;52.25;100717.75;6249824;23;20018;-69
2021/07/23 02:26:04;;;;;;;0.55;0.55;;;;;;;20.30;52.25;100713.69;6224457;23;20035;-70
2021/07/23 02:28:30;;;;;;;0.50;0.50;;;;;;;20.30;52.28;100708.94;6248127;23;20004;-70
2021/07/23 02:30:55;;;;;;;0.40;0.40;;;;;;;20.29;52.43;100712.03;6217359;23;20012;-70
2021/07/23 02:33:20;;;;;;;0.20;0.20;;;;;;;20.28;52.51;100707.63;6221935;23;20004;-69
2021/07/23 02:35:46;;;;;;;0.57;0.40;;;;;;;20.27;52.17;100708.75;6221359;23;20368;-68
2021/07/23 02:38:11;;;;;;;0.52;0.52;;;;;;;20.23;52.72;100703.84;6236893;23;20014;-69
2021/07/23 02:40:37;;;;;;;0.35;0.35;;;;;;;20.21;52.79;100705.34;6196765;23;20083;-70
2021/07/23 02:43:03;;;;;;;0.30;0.30;;;;;;;20.14;52.61;100696.66;6247761;23;19996;-70
2021/07/23 02:45:28;;;;;;;0.30;0.30;;;;;;;20.13;52.61;100703.34;6240865;23;20004;-69
2021/07/23 02:47:54;;;;;;;0.38;0.38;;;;;;;20.07;52.99;100699.09;6249781;23;20000;-70
2021/07/23 02:50:20;;;;;;;0.60;0.60;;;;;;;20.05;53.08;100696.66;6246265;23;20078;-70
2021/07/23 02:52:45;;;;;;;0.50;0.50;;;;;;;20.00;52.88;100694.81;6196887;23;20004;-70
2021/07/23 02:55:11;;;;;;;0.40;0.40;;;;;;;19.96;53.67;100687.47;6243823;23;20016;-69
2021/07/23 02:57:36;;;;;;;0.30;0.30;;;;;;;19.92;53.81;100690.09;6246907;23;20023;-70
2021/07/23 03:00:03;;;;;;;0.95;0.38;;;;;;;19.89;53.09;100693.50;6242491;23;20554;-70
2021/07/23 03:02:28;;;;;;;0.40;0.40;;;;;;;19.89;53.80;100685.19;6240973;23;20035;-70
2021/07/23 03:04:54;;;;;;;1.17;1.17;;;;;;;19.88;53.85;100686.31;6219006;23;20729;-70
2021/07/23 03:07:19;;;;;;;0.85;0.85;;;;;;;19.87;53.80;100679.13;6219333;23;20093;-70
2021/07/23 03:09:45;;;;;;;0.90;0.90;;;;;;;19.85;54.45;100675.88;6246565;23;20081;-71
2021/07/23 03:12:11;;;;;;;0.70;0.70;;;;;;;19.82;54.00;100676.53;6221967;23;20012;-70
2021/07/23 03:14:37;;;;;;;1.00;1.00;;;;;;;19.80;54.07;100674.06;6217139;23;20008;-72
2021/07/23 03:17:08;;;;;;;0.90;0.90;;;;;;;19.78;54.39;100681.88;6243943;23;20014;-70
2021/07/23 03:19:33;;;;;;;0.93;0.93;;;;;;;19.75;54.13;100670.59;6221611;23;20478;-71
2021/07/23 03:21:58;;;;;;;0.90;0.90;;;;;;;19.75;54.19;100681.69;6222294;23;20020;-71
2021/07/23 03:24:24;;;;;;;0.68;0.68;;;;;;;19.74;54.23;100672.53;6222838;23;20079;-71
2021/07/23 03:26:49;;;;;;;0.30;0.30;;;;;;;19.74;54.47;100668.94;6224521;23;20076;-68
2021/07/23 03:29:15;;;;;;;1.20;1.10;;;;;;;19.71;55.22;100664.84;6250694;23;20471;-69
2021/07/23 03:31:40;;;;;;;0.60;0.60;;;;;;;19.69;54.76;100673.50;6250677;23;20426;-70
2021/07/23 03:34:06;;;;;;;0.50;0.50;;;;;;;19.68;54.84;100666.34;6248239;23;20071;-70
2021/07/23 03:36:31;;;;;;;0.50;0.50;;;;;;;19.62;55.16;100653.72;6223368;23;20011;-69
2021/07/23 03:38:57;;;;;;;0.55;0.55;;;;;;;19.66;54.96;100663.06;6221986;23;20008;-71
2021/07/23 03:41:22;;;;;;;0.60;0.57;;;;;;;19.64;55.81;100659.78;6249898;23;20016;-70
2021/07/23 03:43:47;;;;;;;0.90;0.90;;;;;;;19.62;55.22;100661.25;6224281;23;20382;-71
2021/07/23 03:46:13;;;;;;;0.85;0.75;;;;;;;19.62;55.47;100656.50;6221861;23;20008;-69
2021/07/23 03:48:38;;;;;;;0.77;0.77;;;;;;;19.61;55.67;100649.34;6249360;23;20011;-69
2021/07/23 03:51:04;;;;;;;0.50;0.50;;;;;;;19.59;55.78;100648.84;6216252;23;20038;-70
2021/07/23 03:53:29;;;;;;;0.98;0.98;;;;;;;19.59;55.75;100651.59;6244108;23;20012;-69
2021/07/23 03:55:55;;;;;;;0.88;0.88;;;;;;;19.60;55.81;100653.25;6217307;23;20008;-71
2021/07/23 03:58:20;;;;;;;0.77;0.77;;;;;;;19.60;55.80;100647.69;6246875;23;20359;-71
2021/07/23 04:00:45;;;;;;;0.70;0.70;;;;;;;19.58;56.25;100644.44;6220041;23;20011;-70
2021/07/23 04:03:11;;;;;;;0.55;0.55;;;;;;;19.58;56.22;100644.44;6218218;23;20390;-71
2021/07/23 04:05:36;;;;;;;0.30;0.30;;;;;;;19.58;55.92;100644.44;6248362;23;20327;-71
2021/07/23 04:08:02;;;;;;;0.68;0.68;;;;;;;19.57;55.95;100631.72;6249112;23;20012;-72
2021/07/23 04:10:28;;;;;;;0.60;0.60;;;;;;;19.56;55.95;100624.50;6250102;23;20008;-70
2021/07/23 04:12:53;;;;;;;0.60;0.60;;;;;;;19.56;56.20;100629.25;6195861;23;20702;-70
2021/07/23 04:15:20;;;;;;;0.70;0.70;;;;;;;19.56;56.34;100629.25;6222708;23;20199;-71
2021/07/23 04:17:45;;;;;;;1.00;1.00;;;;;;;19.56;56.77;100632.84;6243224;23;20327;-70
2021/07/23 04:20:11;;;;;;;0.95;0.95;;;;;;;19.56;56.88;100630.06;6250034;23;20087;-70
2021/07/23 04:22:37;;;;;;;1.00;1.00;;;;;;;19.56;56.54;100618.97;6244514;23;20509;-70
2021/07/23 04:25:02;;;;;;;0.85;0.85;;;;;;;19.56;56.91;100618.97;6222954;23;20640;-71
2021/07/23 04:27:29;;;;;;;0.40;0.40;;;;;;;19.57;56.40;100615.06;6248729;23;20593;-70
2021/07/23 04:29:54;;;;;;;0.73;0.73;;;;;;;19.56;56.67;100607.88;6248202;23;20339;-69
2021/07/23 04:32:19;;;;;;;0.98;0.98;;;;;;;19.60;57.10;100606.09;6197692;23;20008;-70
2021/07/23 04:34:45;;;;;;;2.00;1.48;;;;;;;19.61;56.85;100599.41;6215809;23;20087;-70
2021/07/23 04:37:10;;;;;;;0.80;0.80;;;;;;;19.62;56.80;100601.03;6241036;23;20071;-69
2021/07/23 04:39:36;;;;;;;0.90;0.90;;;;;;;19.64;57.17;100603.47;6220837;23;20008;-69
2021/07/23 04:42:05;;;;;;;1.00;1.00;;;;;;;19.65;57.10;100605.94;6219148;23;20027;-70
2021/07/23 04:44:32;;;;;;;0.70;0.70;;;;;;;19.64;56.83;100598.75;6248514;23;20026;-71
2021/07/23 04:47:01;;;;;;;1.02;1.02;;;;;;;19.66;56.87;100604.78;6251408;23;20053;-71
2021/07/23 04:49:27;;;;;;;0.60;0.60;;;;;;;19.68;56.88;100599.75;6222318;23;20152;-70
2021/07/23 04:51:52;;;;;;;1.05;0.98;;;;;;;19.71;57.15;100604.66;6249087;23;20008;-71
2021/07/23 04:54:18;;;;;;;1.13;1.13;;;;;;;19.75;57.25;100599.25;6221137;23;20068;-71
2021/07/23 04:56:46;;;;;;;1.20;1.20;;;;;;;19.79;57.23;100596.69;6218243;23;20435;-70
2021/07/23 04:59:11;;;;;;;1.17;1.17;;;;;;;19.84;56.99;100593.75;6239868;23;20316;-71
2021/07/23 05:01:36;;;;;;;0.90;0.90;;;;;;;19.86;56.90;100585.94;6221881;23;20023;-70
2021/07/23 05:04:02;;;;;;;1.85;1.75;;;;;;;19.95;57.13;100588.72;6246922;23;20411;-71
2021/07/23 05:06:27;;;;;;;1.70;1.60;;;;;;;20.01;57.49;100591.00;6218308;23;20011;-71
2021/07/23 05:08:53;;;;;;;1.65;1.35;;;;;;;20.07;57.15;100588.06;6250811;23;20004;-70
2021/07/23 05:11:18;;;;;;;1.13;1.13;;;;;;;20.12;57.57;100585.97;6253634;23;20401;-71
2021/07/23 05:13:44;;;;;;;1.10;1.10;;;;;;;20.18;57.37;100594.91;6253882;23;20057;-70
2021/07/23 05:16:10;;;;;;;2.00;1.08;;;;;;;20.21;57.59;100589.53;6228040;23;20011;-71
2021/07/23 05:18:38;;;;;;;1.95;1.85;;;;;;;20.25;57.15;100595.22;6253606;23;20016;-72
2021/07/23 05:21:06;;;;;;;1.65;1.55;;;;;;;20.27;57.75;100597.69;6254608;23;20004;-71
2021/07/23 05:23:34;;;;;;;1.77;1.67;;;;;;;20.27;57.00;100590.19;6229979;23;20012;-71
2021/07/23 05:26:01;;;;;;;1.35;1.25;;;;;;;20.31;57.17;100590.34;6254922;23;20015;-72
2021/07/23 05:28:26;;;;;;;3.83;1.63;;;;;;;20.34;57.81;100584.97;6228661;23;20012;-73
2021/07/23 05:30:52;;;;;;;2.08;1.98;;;;;;;20.39;57.74;100583.97;6203568;23;20042;-75
2021/07/23 05:33:17;;;;;;;2.38;2.13;;;;;;;20.42;58.02;100582.50;6256170;23;20415;-72
2021/07/23 05:35:42;;;;;;;2.85;2.75;;;;;;;20.47;57.91;100580.38;6253354;23;20015;-70
2021/07/23 05:38:14;;;;;;;2.83;1.83;;;;;;;20.52;57.30;100579.38;6229192;23;20012;-70
2021/07/23 05:40:41;;;;;;;1.70;1.60;;;;;;;20.55;57.46;100584.28;6254238;23;20004;-71
2021/07/23 05:43:10;;;;;;;2.13;2.03;;;;;;;20.60;57.37;100583.28;6200966;23;20015;-70
2021/07/23 05:45:42;;;;;;;2.00;1.90;;;;;;;20.62;57.64;100575.41;6253784;23;20330;-69
2021/07/23 05:48:07;;;;;;;2.05;1.95;;;;;;;20.61;57.84;100577.38;6250739;23;20031;-70
2021/07/23 05:50:34;;;;;;;1.20;1.13;;;;;;;20.61;57.30;100582.13;6254872;23;20059;-72
2021/07/23 05:52:59;;;;;;;1.10;1.10;;;;;;;20.62;57.38;100581.81;6250268;23;20004;-69
2021/07/23 05:55:25;;;;;;;1.27;1.27;;;;;;;20.61;57.32;100590.47;6230879;23;20042;-74
2021/07/23 05:57:50;;;;;;;1.65;1.60;;;;;;;20.63;57.44;100588.97;6225283;23;20058;-72
2021/07/23 06:00:16;;;;;;;1.45;1.35;;;;;;;20.63;57.46;100588.16;6249063;23;20066;-71
2021/07/23 06:02:42;;;;;;;1.67;1.58;;;;;;;20.63;57.87;100588.97;6254594;23;20008;-73
2021/07/23 06:05:08;;;;;;;1.70;1.60;;;;;;;20.64;57.41;100600.91;6250352;23;20010;-71
2021/07/23 06:07:33;;;;;;;2.28;2.15;;;;;;;20.67;57.42;100595.53;6228793;23;20012;-78
2021/07/23 06:09:59;;;;;;;1.50;1.50;;;;;;;20.66;57.22;100599.47;6227942;23;20020;-77
2021/07/23 06:12:25;;;;;;;1.67;1.63;;;;;;;20.67;57.54;100595.53;6258122;23;20000;-79
2021/07/23 06:14:50;;;;;;;1.95;1.85;;;;;;;20.66;57.78;100599.47;6233349;23;20008;-80
2021/07/23 06:17:15;;;;;;;2.25;2.15;;;;;;;20.72;57.20;100597.31;6258376;23;20004;-77
2021/07/23 06:19:41;;;;;;;1.98;1.88;;;;;;;20.75;57.25;100591.94;6258831;23;20011;-78
2021/07/23 06:22:07;;;;;;;3.53;3.33;;;;;;;20.84;57.48;100593.88;6229012;23;20015;-78
2021/07/23 06:24:35;;;;;;;3.35;3.15;;;;;;;20.88;57.05;100605.94;6232704;23;20008;-79
2021/07/23 06:27:01;;;;;;;3.28;3.00;;;;;;;20.96;57.36;100599.56;6259903;23;20004;-78
2021/07/23 06:29:26;;;;;;;3.03;2.92;;;;;;;21.05;56.69;100603.09;6259579;23;20354;-78
2021/07/23 06:31:56;;;;;;;2.40;2.30;;;;;;;21.10;56.74;100594.59;6232211;23;20011;-77
2021/07/23 06:34:22;;;;;;;2.25;2.15;;;;;;;21.13;56.98;100595.06;6203926;23;20048;-78
2021/07/23 06:36:47;;;;;;;2.53;2.40;;;;;;;21.13;56.53;100593.13;6232078;23;20034;-79
2021/07/23 06:39:12;;;;;;;3.95;3.05;;;;;;;21.09;56.91;100590.19;6181748;23;20012;-78
2021/07/23 06:41:38;;;;;;;3.80;3.47;;;;;;;21.02;56.45;100589.88;6255115;23;20063;-77
2021/07/23 06:44:04;;;;;;;4.82;4.47;;;;;;;21.02;56.73;100589.88;6229624;23;20331;-78
2021/07/23 06:46:30;;;;;;;3.78;3.58;;;;;;;21.04;57.29;100590.38;6232159;23;20011;-78
2021/07/23 06:48:55;;;;;;;4.28;3.97;;;;;;;21.10;56.67;100583.47;6182750;23;20004;-79
2021/07/23 06:51:21;;;;;;;4.25;3.92;;;;;;;21.18;56.48;100581.00;6187534;23;20008;-78
2021/07/23 06:53:46;;;;;;;3.50;3.40;;;;;;;21.30;56.64;100595.00;6208461;23;20024;-78
2021/07/23 06:56:12;;;;;;;3.25;3.15;;;;;;;21.35;56.33;100600.38;6236774;23;20004;-78
2021/07/23 06:58:37;;;;;;;9.32;2.83;;;;;;;21.49;56.17;100610.44;6226767;23;20020;-78
2021/07/23 07:01:06;;;;;;;3.30;3.20;;;;;;;21.61;56.10;100607.78;6258953;23;20026;-80
2021/07/23 07:03:32;;;;;;;2.63;2.53;;;;;;;21.71;56.31;100609.34;6228672;23;20000;-80
2021/07/23 07:05:58;;;;;;;3.90;3.70;;;;;;;21.79;55.93;100614.88;6230365;23;20062;-80
2021/07/23 07:08:24;;;;;;;5.25;4.85;;;;;;;21.83;55.97;100605.84;6204920;23;20011;-78
2021/07/23 07:10:55;;;;;;;5.22;4.65;;;;;;;21.78;55.92;100598.50;6202893;23;20024;-80
2021/07/23 07:13:21;;;;;;;5.90;5.53;;;;;;;21.82;56.28;100613.38;6230258;23;20008;-77
2021/07/23 07:15:47;;;;;;;3.05;2.95;;;;;;;21.92;55.96;100609.41;6258610;23;20007;-76
2021/07/23 07:18:12;;;;;;;4.75;4.45;;;;;;;22.03;56.22;100605.03;6230610;23;20035;-74
2021/07/23 07:20:37;;;;;;;4.78;4.53;;;;;;;22.06;56.11;100589.63;6230317;23;20008;-78
2021/07/23 07:23:03;;;;;;;4.55;4.35;;;;;;;22.19;55.86;100598.84;6232739;23;19995;-77
2021/07/23 07:25:31;;;;;;;5.38;5.07;;;;;;;22.30;55.69;100605.66;6262064;23;20004;-77
2021/07/23 07:27:57;;;;;;;4.97;4.13;;;;;;;22.38;55.78;100603.97;6231645;23;20019;-81
2021/07/23 07:30:23;;;;;;;4.10;3.90;;;;;;;22.48;55.25;100607.13;6229597;23;20431;-76
2021/07/23 07:32:49;;;;;;;5.80;5.22;;;;;;;22.57;55.40;100606.25;6227282;23;20004;-76
2021/07/23 07:35:16;;;;;;;10.32;6.55;;;;;;;22.56;55.23;100610.19;6249800;23;20015;-75
2021/07/23 07:37:41;;;;;;;6.43;5.90;;;;;;;22.55;54.87;100603.00;6229311;23;20004;-75
2021/07/23 07:40:08;;;;;;;6.50;5.93;;;;;;;22.55;54.91;100592.66;6227931;23;20012;-74
2021/07/23 07:42:33;;;;;;;5.85;5.35;;;;;;;22.58;55.31;100591.97;6228400;23;20122;-76
2021/07/23 07:44:59;;;;;;;6.13;5.53;;;;;;;22.67;54.85;100577.94;6199565;23;20008;-75
2021/07/23 07:47:24;;;;;;;4.90;4.60;;;;;;;22.79;55.08;100575.19;6229912;23;19992;-76
2021/07/23 07:49:55;;;;;;;5.45;5.05;;;;;;;22.94;54.95;100575.66;6257310;23;20011;-75
2021/07/23 07:52:20;;;;;;;3.95;3.70;;;;;;;23.07;54.92;100568.13;6250910;23;20014;-74
2021/07/23 07:54:46;;;;;;;5.00;4.60;;;;;;;23.19;54.49;100570.97;6257710;23;20008;-75
2021/07/23 07:57:12;;;;;;;6.28;5.70;;;;;;;23.26;54.14;100565.63;6197406;23;20047;-74
2021/07/23 07:59:39;;;;;;;5.85;5.38;;;;;;;23.32;54.25;100557.84;6230233;23;20074;-75
2021/07/23 08:02:11;;;;;;;5.13;4.72;;;;;;;23.44;54.32;100557.81;6227282;23;20004;-75
2021/07/23 08:04:38;;;;;;;6.10;5.65;;;;;;;23.45;54.09;100553.88;6253723;23;20027;-75
2021/07/23 08:07:09;;;;;;;5.20;4.70;;;;;;;23.49;53.89;100557.56;6255055;23;20490;-76
2021/07/23 08:10:01;;;;;;;4.75;4.55;;;;;;;23.67;53.39;100552.53;6252271;23;20015;-75
2021/07/23 08:12:27;;;;;;;6.13;5.72;;;;;;;23.68;53.66;100558.94;6256311;23;20000;-75
2021/07/23 08:14:52;;;;;;;6.15;5.63;;;;;;;23.72;53.56;100551.47;6259159;23;20027;-75
2021/07/23 08:17:18;;;;;;;6.50;5.90;;;;;;;23.74;53.31;100546.34;6229886;23;20326;-74
2021/07/23 08:19:44;;;;;;;5.30;4.93;;;;;;;23.79;53.18;100548.09;6257278;23;20008;-73
2021/07/23 08:22:10;;;;;;;7.00;6.30;;;;;;;23.79;52.90;100537.75;6205180;23;20004;-74
2021/07/23 08:24:36;;;;;;;6.25;5.65;;;;;;;23.78;52.75;100552.06;6258632;23;20008;-74
2021/07/23 08:27:03;;;;;;;5.15;4.70;;;;;;;23.83;53.21;100552.63;6230760;23;20012;-74
2021/07/23 08:29:28;;;;;;;5.30;4.90;;;;;;;23.99;52.90;100546.31;6231592;23;20008;-76
2021/07/23 08:31:54;;;;;;;5.78;5.47;;;;;;;24.05;51.94;100547.69;6259377;23;20004;-76
2021/07/23 08:34:19;;;;;;;6.07;5.53;;;;;;;24.03;51.02;100542.47;6255189;23;20044;-77
2021/07/23 08:36:44;;;;;;;6.22;5.10;;;;;;;24.05;51.38;100539.31;6232416;23;20027;-76
2021/07/23 08:39:10;;;;;;;7.80;4.47;;;;;;;24.00;50.32;100531.19;6230077;23;20004;-77
2021/07/23 08:41:36;;;;;;;4.22;4.03;;;;;;;24.05;49.91;100544.91;6231395;23;20425;-75
2021/07/23 08:44:02;;;;;;;3.70;3.50;;;;;;;24.09;50.05;100540.22;6235372;23;20012;-75
2021/07/23 08:46:28;;;;;;;4.85;3.70;;;;;;;24.13;49.66;100532.75;6257998;23;20084;-76
2021/07/23 08:48:55;;;;;;;3.58;3.42;;;;;;;24.20;49.34;100519.00;6257464;23;20034;-77
2021/07/23 08:51:21;;;;;;;4.07;3.78;;;;;;;24.31;49.42;100524.06;6203728;23;20085;-76
2021/07/23 08:53:50;;;;;;;3.92;3.63;;;;;;;24.35;49.25;100513.78;6220885;23;20044;-77
2021/07/23 08:56:15;;;;;;;4.20;3.95;;;;;;;24.41;48.95;100512.34;6254555;23;20008;-74
2021/07/23 08:58:41;;;;;;;3.13;2.92;;;;;;;24.50;49.33;100501.84;6228647;23;20087;-75
2021/07/23 09:01:09;;;;;;;3.33;3.22;;;;;;;24.72;48.87;100499.59;6229080;23;20086;-77
2021/07/23 09:03:35;;;;;;;3.92;3.63;;;;;;;24.82;48.87;100504.66;6254536;23;20007;-74
2021/07/23 09:06:18;;;;;;;3.30;3.10;;;;;;;25.02;48.26;100496.34;6198731;23;20008;-74
2021/07/23 09:08:48;;;;;;;3.15;3.05;;;;;;;25.08;47.94;100503.28;6255262;23;20313;-74
2021/07/23 09:11:14;;;;;;;4.45;4.10;;;;;;;25.10;47.53;100492.53;6226433;23;20008;-74
2021/07/23 09:13:39;;;;;;;3.03;2.92;;;;;;;25.19;46.95;100497.94;6228423;23;20004;-75
2021/07/23 09:16:25;;;;;;;4.35;3.95;;;;;;;25.32;46.93;100504.25;6194540;23;20015;-76
2021/07/23 09:19:10;;;;;;;3.78;3.58;;;;;;;25.34;47.01;100501.94;6203929;23;20008;-74
2021/07/23 09:21:37;;;;;;;3.35;3.15;;;;;;;25.37;46.75;100484.41;6257393;23;20000;-74
2021/07/23 09:24:06;;;;;;;3.50;3.17;;;;;;;25.44;45.39;100476.97;6228369;23;20005;-74
2021/07/23 09:26:43;;;;;;;4.80;4.20;;;;;;;25.46;44.41;100479.41;6255401;23;19996;-73
2021/07/23 09:29:09;;;;;;;3.95;3.65;;;;;;;25.46;44.96;100476.59;6227219;23;20004;-73
2021/07/23 09:31:35;;;;;;;4.22;3.55;;;;;;;25.56;44.40;100470.41;6254968;23;20031;-74
2021/07/23 09:34:03;;;;;;;7.00;3.30;;;;;;;25.68;44.96;100466.66;6254676;23;20063;-72
2021/07/23 09:36:29;;;;;;;3.25;3.15;;;;;;;25.80;44.07;100454.50;6220168;23;20118;-73
2021/07/23 09:39:06;;;;;;;3.83;3.53;;;;;;;26.03;44.71;100453.78;6251732;23;20000;-73
2021/07/23 09:41:33;;;;;;;3.38;3.08;;;;;;;26.16;43.72;100440.41;6227072;23;20086;-73
2021/07/23 09:44:10;;;;;;;3.30;3.10;;;;;;;26.47;43.52;100439.34;6250348;23;20050;-73
2021/07/23 09:46:44;;;;;;;5.13;3.03;;;;;;;26.82;42.59;100432.75;6253225;23;20004;-76
2021/07/23 09:49:27;;;;;;;3.40;3.28;;;;;;;27.12;42.42;100424.38;6253686;23;20004;-73
2021/07/23 09:52:04;;;;;;;2.92;2.83;;;;;;;27.27;41.58;100431.00;6222429;23;20015;-72
2021/07/23 09:54:30;;;;;;;3.05;2.85;;;;;;;27.60;41.54;100421.03;6244368;23;20458;-74
2021/07/23 09:56:55;;;;;;;3.08;2.97;;;;;;;27.96;40.88;100406.56;6247281;23;20008;-72
2021/07/23 09:59:41;;;;;;;2.25;2.15;;;;;;;28.48;39.95;100407.47;6149029;23;20093;-76
2021/07/23 10:02:16;;;;;;;2.53;2.42;;;;;;;29.10;36.84;100413.56;6189181;23;19997;-74
2021/07/23 10:05:07;;;;;;;5.73;2.50;;;;;;;30.06;35.92;100407.50;6185925;23;20035;-75
2021/07/23 10:07:46;;;;;;;2.50;2.40;;;;;;;30.91;34.87;100405.09;6188681;23;20230;-74
2021/07/23 10:10:15;;;;;;;4.05;2.05;;;;;;;31.82;33.54;100400.78;6159910;23;20039;-75
2021/07/23 10:12:43;;;;;;;1.88;1.77;;;;;;;32.48;30.68;100390.63;6190962;23;20501;-76
2021/07/23 10:15:13;;;;;;;1.98;1.88;;;;;;;32.96;30.29;100391.78;6159448;23;20160;-77
2021/07/23 10:17:40;;;;;;;1.98;1.60;;;;;;;33.25;29.53;100387.84;6188830;23;20004;-75
2021/07/23 10:20:06;;;;;;;1.42;1.42;;;;;;;33.62;29.30;100383.34;6190020;23;20032;-76
2021/07/23 10:22:31;;;;;;;1.52;1.45;;;;;;;33.91;27.94;100376.03;6184710;23;20316;-74
2021/07/23 10:24:59;;;;;;;1.30;1.30;;;;;;;34.38;27.93;100374.50;6188460;23;20083;-74
2021/07/23 10:27:24;;;;;;;1.35;1.08;;;;;;;35.25;27.49;100363.13;6189882;23;20015;-74
2021/07/23 10:29:52;;;;;;;1.02;1.02;;;;;;;35.80;26.52;100368.47;6190168;23;19997;-75
2021/07/23 10:32:24;;;;;;;1.13;1.13;;;;;;;35.91;25.21;100368.22;6189508;23;20017;-76
2021/07/23 10:34:53;;;;;;;2.17;1.27;;;;;;;35.48;23.42;100376.47;6188767;23;20052;-74
2021/07/23 10:37:28;;;;;;;6.93;1.50;;;;;;;35.24;23.88;100378.56;6187515;23;20023;-76
2021/07/23 10:40:12;;;;;;;;;;;;;;;35.48;23.20;100375.66;6193257;23;20008;-76
2021/07/23 10:42:42;;;;;;;1.48;1.38;;;;;;;35.16;23.98;100377.09;6186445;23;19948;-76
2021/07/23 10:45:19;;;;;;;1.30;1.30;;;;;;;35.70;24.13;100380.88;6165385;23;20009;-76
2021/07/23 10:47:51;;;;;;;1.48;1.38;;;;;;;36.86;23.68;100391.88;6186492;23;20001;-75
2021/07/23 10:50:26;;;;;;;1.48;1.38;;;;;;;37.84;22.18;100389.06;6165309;23;20021;-76
2021/07/23 10:52:53;;;;;;;1.55;1.45;;;;;;;38.66;21.11;100390.47;6166123;23;20099;-77
2021/07/23 10:55:24;;;;;;;1.13;1.13;;;;;;;39.02;20.74;100378.53;6176583;23;20340;-77
2021/07/23 10:58:05;;;;;;;1.77;1.38;;;;;;;39.22;19.97;100369.63;6189431;22;20024;-77
2021/07/23 11:00:50;;;;;;;1.58;1.48;;;;;;;39.10;19.42;100370.47;6191679;23;20359;-79
2021/07/23 11:03:35;;;;;;;3.17;1.20;;;;;;;38.75;19.80;100379.88;6191425;23;20001;-77
2021/07/23 11:06:01;;;;;;;1.60;1.50;;;;;;;38.11;19.66;100376.34;6191917;23;20012;-77
2021/07/23 11:08:27;;;;;;;1.67;1.65;;;;;;;37.53;20.01;100381.81;6190849;23;20015;-74
2021/07/23 11:10:54;;;;;;;1.55;1.45;;;;;;;37.23;20.49;100394.50;6161703;23;20009;-75
2021/07/23 11:13:20;;;;;;;2.22;2.13;;;;;;;36.84;20.42;100390.69;6187113;23;20001;-74
2021/07/23 11:15:45;;;;;;;1.67;1.58;;;;;;;36.64;21.16;100385.91;6183263;23;20052;-73
2021/07/23 11:18:14;;;;;;;1.27;1.27;;;;;;;36.83;21.44;100391.97;6188600;23;20082;-75
2021/07/23 11:20:41;;;;;;;1.13;1.13;;;;;;;37.06;21.76;100392.97;6188422;23;20005;-72
2021/07/23 11:23:07;;;;;;;1.00;1.00;;;;;;;37.08;21.92;100396.97;6181404;23;20029;-73
2021/07/23 11:25:33;;;;;;;1.15;1.05;;;;;;;37.25;21.85;100389.16;6185695;23;20005;-73